createdAt,value
2022-09-02T00:04:38.581Z,100246.47
2022-09-02T00:09:40.648Z,100237.47
2022-09-02T00:14:42.330Z,100237.44
2022-09-02T00:19:44.018Z,100231.53
2022-09-02T00:24:45.687Z,100225.31
2022-09-02T00:29:47.521Z,100234.25
2022-09-02T00:34:49.210Z,100222.81
2022-09-02T00:39:51.976Z,100227.03
2022-09-02T00:44:53.746Z,100215.56
2022-09-02T00:49:55.459Z,100220.44
2022-09-02T00:55:04.705Z,100217.69
2022-09-02T01:00:18.555Z,100218.97
2022-09-02T01:05:23.431Z,100221.13
2022-09-02T01:10:29.120Z,100224.22
2022-09-02T01:15:31.220Z,100219.59
2022-09-02T01:20:33.017Z,100213.19
2022-09-02T01:25:35.759Z,100219.50
2022-09-02T01:30:42.159Z,100216.94
2022-09-02T01:35:45.269Z,100207.06
2022-09-02T01:40:47.651Z,100212.31
2022-09-02T01:45:52.659Z,100212.13
2022-09-02T01:50:58.833Z,100207.03
2022-09-02T01:56:00.760Z,100218.09
2022-09-02T02:01:08.060Z,100212.72
2022-09-02T02:06:16.434Z,100205.00
2022-09-02T02:11:24.782Z,100207.75
2022-09-02T02:16:36.845Z,100206.13
2022-09-02T02:21:38.617Z,100206.53
2022-09-02T02:26:41.239Z,100201.38
2022-09-02T02:31:45.535Z,100210.84
2022-09-02T02:36:47.933Z,100199.97
2022-09-02T02:41:49.849Z,100199.34
2022-09-02T02:46:52.034Z,100199.31
2022-09-02T02:51:54.427Z,100199.53
2022-09-02T02:56:58.187Z,100200.75
2022-09-02T03:02:00.116Z,100196.56
2022-09-02T03:07:03.140Z,100193.47
2022-09-02T03:12:05.528Z,100190.25
2022-09-02T03:17:09.111Z,100194.38
2022-09-02T03:22:11.113Z,100194.38
2022-09-02T03:27:13.017Z,100192.84
2022-09-02T03:32:15.031Z,100186.97
2022-09-02T03:37:18.557Z,100199.81
2022-09-02T03:42:20.402Z,100198.91
2022-09-02T03:47:25.537Z,100193.47
2022-09-02T03:52:28.205Z,100191.47
2022-09-02T03:57:29.959Z,100188.00
2022-09-02T04:02:32.360Z,100188.09
2022-09-02T04:07:34.913Z,100193.09
2022-09-02T04:12:37.455Z,100195.09
2022-09-02T04:17:41.861Z,100197.84
2022-09-02T04:22:45.955Z,100194.91
2022-09-02T04:27:47.965Z,100195.53
2022-09-02T04:32:50.854Z,100197.44
2022-09-02T04:37:52.575Z,100189.09
2022-09-02T04:42:55.670Z,100200.78
2022-09-02T04:47:58.742Z,100188.78
2022-09-02T04:53:01.775Z,100194.19
2022-09-02T04:58:05.751Z,100189.63
2022-09-02T05:03:08.178Z,100193.47
2022-09-02T05:08:13.219Z,100204.91
2022-09-02T05:13:16.456Z,100195.66
2022-09-02T05:18:21.031Z,100194.63
2022-09-02T05:23:23.365Z,100203.44
2022-09-02T05:28:25.414Z,100200.41
2022-09-02T05:33:27.810Z,100193.81
2022-09-02T05:38:29.734Z,100187.72
2022-09-02T05:43:32.364Z,100191.34
2022-09-02T05:48:58.192Z,100182.16
2022-09-02T05:54:01.490Z,100185.44
2022-09-02T05:59:03.811Z,100182.19
2022-09-02T06:04:07.746Z,100174.06
2022-09-02T06:09:14.817Z,100190.09
2022-09-02T06:14:25.078Z,100188.03
2022-09-02T06:19:32.694Z,100188.97
2022-09-02T06:24:36.960Z,100183.69
2022-09-02T06:29:44.250Z,100178.19
2022-09-02T06:34:45.988Z,100178.78
2022-09-02T06:39:48.542Z,100179.97
2022-09-02T06:44:56.586Z,100175.13
2022-09-02T06:50:00.092Z,100177.31
2022-09-02T06:55:02.325Z,100173.50
2022-09-02T07:00:06.639Z,100175.69
2022-09-02T07:05:09.848Z,100176.63
2022-09-02T07:10:13.859Z,100174.66
2022-09-02T07:15:19.042Z,100177.13
2022-09-02T07:20:20.886Z,100172.53
2022-09-02T07:25:27.845Z,100171.75
2022-09-02T07:30:31.683Z,100166.00
2022-09-02T07:35:43.557Z,100177.22
2022-09-02T07:40:47.112Z,100170.41
2022-09-02T07:45:51.063Z,100173.72
2022-09-02T07:50:53.052Z,100176.22
2022-09-02T07:55:54.834Z,100177.41
2022-09-02T08:00:57.788Z,100164.22
2022-09-02T08:06:00.815Z,100165.13
2022-09-02T08:11:03.085Z,100165.00
2022-09-02T08:16:05.033Z,100159.47
2022-09-02T08:21:06.780Z,100155.19
2022-09-02T08:26:08.477Z,100143.16
2022-09-02T08:31:10.840Z,100154.00
2022-09-02T08:36:15.120Z,100150.78
2022-09-02T08:41:21.931Z,100146.28
2022-09-02T08:46:26.559Z,100138.13
2022-09-02T08:51:42.962Z,100128.63
2022-09-02T08:56:44.656Z,100128.16
2022-09-02T09:01:53.559Z,100126.19
2022-09-02T09:07:02.336Z,100118.44
2022-09-02T09:12:40.019Z,100110.13
2022-09-02T09:17:51.836Z,100106.50
2022-09-02T09:22:57.116Z,100088.50
2022-09-02T09:28:00.454Z,100096.06
2022-09-02T09:33:02.799Z,100094.16
2022-09-02T09:38:12.838Z,100101.44
2022-09-02T09:43:15.936Z,100083.66
2022-09-02T09:48:19.828Z,100088.38
2022-09-02T09:53:25.888Z,100084.13
2022-09-02T09:58:34.249Z,100077.81
2022-09-02T10:03:36.127Z,100079.75
2022-09-02T10:08:51.307Z,100073.94
2022-09-02T10:13:59.863Z,100061.63
2022-09-02T10:19:11.215Z,100064.25
2022-09-02T10:24:35.293Z,100060.50
2022-09-02T10:29:57.171Z,100049.88
2022-09-02T10:35:23.081Z,100054.94
2022-09-02T10:40:41.776Z,100044.78
2022-09-02T10:45:50.145Z,100047.34
2022-09-02T10:51:15.762Z,100039.50
2022-09-02T10:56:21.772Z,100039.84
2022-09-02T11:01:32.735Z,100034.53
2022-09-02T11:07:01.861Z,100035.34
2022-09-02T11:12:16.359Z,100033.41
2022-09-02T11:17:35.704Z,100026.63
2022-09-02T11:22:54.302Z,100034.59
2022-09-02T11:28:45.774Z,100027.47
2022-09-02T11:39:51.509Z,100027.22
2022-09-02T11:45:23.019Z,100025.34
2022-09-02T11:50:43.080Z,100014.22
2022-09-02T11:56:02.458Z,100024.50
2022-09-02T12:01:25.934Z,100010.84
2022-09-02T12:06:28.216Z,100011.00
2022-09-02T12:11:41.787Z,100012.00
2022-09-02T12:17:00.780Z,99998.94
2022-09-02T12:22:17.706Z,99997.50
2022-09-02T12:27:29.161Z,99991.88
2022-09-02T12:32:45.842Z,99984.66
2022-09-02T12:38:15.369Z,99979.00
2022-09-02T12:43:26.598Z,99975.47
2022-09-02T12:48:40.671Z,99969.09
2022-09-02T12:53:50.409Z,99968.69
2022-09-02T12:59:01.594Z,99965.81
2022-09-02T13:04:12.063Z,99964.72
2022-09-02T13:09:39.052Z,99952.56
2022-09-02T13:14:58.635Z,99951.72
2022-09-02T13:20:32.541Z,99944.66
2022-09-02T13:25:56.688Z,99948.25
2022-09-02T13:31:27.637Z,99952.94
2022-09-02T13:36:43.275Z,99935.78
2022-09-02T13:41:45.379Z,99937.38
2022-09-02T13:46:57.280Z,99929.19
2022-09-02T13:51:58.977Z,99927.41
2022-09-02T13:57:10.310Z,99927.38
2022-09-02T14:02:32.368Z,99927.94
2022-09-02T14:07:51.583Z,99919.69
2022-09-02T14:12:55.360Z,99913.38
2022-09-02T14:18:08.414Z,99912.00
2022-09-02T14:23:17.110Z,99907.22
2022-09-02T14:28:23.060Z,99898.03
2022-09-02T14:33:28.090Z,99902.09
2022-09-02T14:38:54.461Z,99900.84
2022-09-02T14:44:34.378Z,99904.78
2022-09-02T14:49:46.962Z,99909.50
2022-09-02T14:54:51.442Z,99901.03
2022-09-02T14:59:53.112Z,99905.47
2022-09-02T15:04:56.311Z,99901.13
2022-09-02T15:09:58.251Z,99895.31
2022-09-02T15:15:00.599Z,99898.25
2022-09-02T15:20:02.503Z,99895.72
2022-09-02T15:25:07.930Z,99900.81
2022-09-02T15:30:10.309Z,99904.75
2022-09-02T15:35:12.003Z,99903.59
2022-09-02T15:40:13.679Z,99884.38
2022-09-02T15:45:15.668Z,99881.66
2022-09-02T15:50:17.963Z,99884.94
2022-09-02T15:55:26.803Z,99889.38
2022-09-02T16:00:35.053Z,99886.78
2022-09-02T16:05:37.196Z,99890.34
2022-09-02T16:10:40.251Z,99881.53
2022-09-02T16:15:41.883Z,99869.28
2022-09-02T16:20:43.519Z,99874.00
2022-09-02T16:25:45.142Z,99882.53
2022-09-02T16:30:46.866Z,99871.09
2022-09-02T16:35:49.203Z,99870.69
2022-09-02T16:40:51.934Z,99860.44
2022-09-02T16:45:55.593Z,99865.47
2022-09-02T16:51:01.872Z,99858.25
2022-09-02T16:56:04.462Z,99858.44
2022-09-02T17:01:07.511Z,99854.06
2022-09-02T17:06:09.183Z,99853.13
2022-09-02T17:11:19.052Z,99849.28
2022-09-02T17:16:22.950Z,99842.97
2022-09-02T17:21:42.596Z,99844.44
2022-09-02T17:26:47.428Z,99845.47
2022-09-02T17:31:49.407Z,99844.09
2022-09-02T17:36:51.115Z,99846.00
2022-09-02T17:41:55.701Z,99845.19
2022-09-02T17:46:57.477Z,99854.44
2022-09-02T17:52:00.168Z,99862.88
2022-09-02T17:57:09.693Z,99856.22
2022-09-02T18:02:55.441Z,99866.63
2022-09-02T18:08:18.185Z,99868.13
2022-09-02T18:13:27.450Z,99873.75
2022-09-02T18:18:29.100Z,99878.34
2022-09-02T18:24:06.155Z,99880.44
2022-09-02T18:29:45.732Z,99887.31
2022-09-02T18:35:51.906Z,99890.88
2022-09-02T18:41:07.252Z,99895.25
2022-09-02T18:46:11.868Z,99888.16
2022-09-02T18:51:35.786Z,99900.28
2022-09-02T18:56:44.765Z,99895.69
2022-09-02T19:01:50.610Z,99897.13
2022-09-02T19:07:12.757Z,99887.75
2022-09-02T19:12:14.476Z,99884.59
2022-09-02T19:17:17.287Z,99888.78
2022-09-02T19:22:23.877Z,99891.69
2022-09-02T19:27:31.714Z,99897.09
2022-09-02T19:32:35.688Z,99896.31
2022-09-02T19:37:44.575Z,99902.09
2022-09-02T19:42:46.715Z,99906.31
2022-09-02T19:48:06.405Z,99899.19
2022-09-02T19:53:22.857Z,99898.97
2022-09-02T19:58:24.714Z,99907.13
2022-09-02T20:03:26.636Z,99898.72
2022-09-02T20:08:31.277Z,99907.09
2022-09-02T20:13:40.054Z,99910.41
2022-09-02T20:18:46.256Z,99907.25
2022-09-02T20:23:47.980Z,99906.63
2022-09-02T20:29:20.496Z,99913.69
2022-09-02T20:34:45.226Z,99907.63
2022-09-02T20:40:11.343Z,99910.44
2022-09-02T20:45:38.406Z,99914.88
2022-09-02T20:50:53.655Z,99915.88
2022-09-02T20:56:25.160Z,99918.31
2022-09-02T21:01:31.327Z,99917.31
2022-09-02T21:06:44.354Z,99930.81
2022-09-02T21:12:03.967Z,99926.19
2022-09-02T21:17:43.300Z,99932.78
2022-09-02T21:22:55.456Z,99924.53
2022-09-02T21:28:05.599Z,99933.09
2022-09-02T21:33:11.637Z,99938.47
2022-09-02T21:38:23.949Z,99941.13
2022-09-02T21:43:45.959Z,99946.34
2022-09-02T21:49:32.230Z,99942.75
2022-09-02T21:54:51.888Z,99934.13
2022-09-02T22:00:11.802Z,99941.97
2022-09-02T22:05:31.588Z,99937.16
2022-09-02T22:10:41.454Z,99944.44
2022-09-02T22:15:47.801Z,99943.13
2022-09-02T22:20:53.854Z,99939.22
2022-09-02T22:26:11.219Z,99924.50
2022-09-02T22:31:18.018Z,99927.41
2022-09-02T22:36:48.969Z,99925.41
2022-09-02T22:42:04.282Z,99924.78
2022-09-02T22:47:28.056Z,99923.88
2022-09-02T22:52:47.405Z,99923.78
2022-09-02T22:58:02.594Z,99923.09
2022-09-02T23:03:20.661Z,99915.06
2022-09-02T23:08:22.835Z,99912.72
2022-09-02T23:14:07.075Z,99912.22
2022-09-02T23:19:09.692Z,99913.47
2022-09-02T23:24:25.506Z,99918.97
2022-09-02T23:29:27.207Z,99913.75
2022-09-02T23:34:38.809Z,99910.59
2022-09-02T23:39:53.154Z,99909.03
2022-09-02T23:45:03.759Z,99904.69
2022-09-02T23:50:12.655Z,99896.69
2022-09-02T23:55:32.239Z,99901.13
